createdAt,value
2023-07-19T00:04:00.295Z,1003.84
2023-07-19T00:09:04.415Z,1003.82
2023-07-19T00:14:08.536Z,1003.76
2023-07-19T00:19:20.287Z,1003.74
2023-07-19T00:24:16.854Z,1003.71
2023-07-19T00:29:21.027Z,1003.63
2023-07-19T00:34:25.225Z,1003.65
2023-07-19T00:39:29.424Z,1003.54
2023-07-19T00:49:37.668Z,1003.41
2023-07-19T00:54:41.832Z,1003.45
2023-07-19T00:59:46.018Z,1003.35
2023-07-19T01:04:50.166Z,1003.32
2023-07-19T01:09:54.320Z,1003.36
2023-07-19T01:14:58.455Z,1003.31
2023-07-19T01:20:02.631Z,1003.27
2023-07-19T01:25:06.818Z,1003.23
2023-07-19T01:30:10.915Z,1003.16
2023-07-19T01:35:15.119Z,1003.14
2023-07-19T01:40:19.300Z,1003.15
2023-07-19T01:45:23.410Z,1003.13
2023-07-19T01:50:27.611Z,1003.04
2023-07-19T01:55:31.776Z,1002.99
2023-07-19T02:00:35.909Z,1002.91
2023-07-19T02:05:40.064Z,1002.86
2023-07-19T02:10:44.246Z,1002.78
2023-07-19T02:15:48.400Z,1002.84
2023-07-19T02:20:52.568Z,1002.82
2023-07-19T02:25:56.730Z,1002.73
2023-07-19T02:31:00.920Z,1002.72
2023-07-19T02:36:04.998Z,1002.83
2023-07-19T02:41:09.218Z,1002.95
2023-07-19T02:46:13.406Z,1002.91
2023-07-19T02:51:17.549Z,1002.87
2023-07-19T02:56:21.658Z,1002.91
2023-07-19T03:01:26.182Z,1002.87
2023-07-19T03:06:29.974Z,1002.86
2023-07-19T03:11:34.138Z,1002.86
2023-07-19T03:16:38.338Z,1002.79
2023-07-19T03:21:42.452Z,1002.86
2023-07-19T03:26:46.646Z,1002.88
2023-07-19T03:31:50.796Z,1002.84
2023-07-19T03:36:54.944Z,1002.86
2023-07-19T03:41:59.100Z,1002.88
2023-07-19T03:47:03.271Z,1002.91
2023-07-19T03:52:07.460Z,1002.91
2023-07-19T03:57:11.601Z,1003.01
2023-07-19T04:02:15.798Z,1003.10
2023-07-19T04:07:19.993Z,1002.98
2023-07-19T04:12:24.082Z,1003.04
2023-07-19T04:17:28.340Z,1003.08
2023-07-19T04:22:32.445Z,1003.10
2023-07-19T04:27:36.607Z,1003.16
2023-07-19T04:32:40.793Z,1003.10
2023-07-19T04:37:44.908Z,1003.11
2023-07-19T04:42:47.166Z,1003.16
2023-07-19T04:47:51.375Z,1003.21
2023-07-19T04:52:55.488Z,1003.24
2023-07-19T04:57:59.612Z,1003.12
2023-07-19T05:03:03.838Z,1003.17
2023-07-19T05:08:07.963Z,1003.30
2023-07-19T05:13:12.127Z,1003.22
2023-07-19T05:18:16.288Z,1003.15
2023-07-19T05:23:20.443Z,1003.19
2023-07-19T05:28:24.580Z,1003.24
2023-07-19T05:33:28.744Z,1003.22
2023-07-19T05:38:32.946Z,1003.23
2023-07-19T05:43:37.069Z,1003.36
2023-07-19T05:48:41.211Z,1003.33
2023-07-19T05:53:45.389Z,1003.28
2023-07-19T05:58:49.538Z,1003.19
2023-07-19T06:03:53.806Z,1003.28
2023-07-19T06:08:57.862Z,1003.23
2023-07-19T06:14:02.056Z,1003.25
2023-07-19T06:19:06.242Z,1003.21
2023-07-19T06:24:10.372Z,1003.22
2023-07-19T06:29:14.510Z,1003.26
2023-07-19T06:34:18.670Z,1003.26
2023-07-19T06:39:22.868Z,1003.25
2023-07-19T06:44:27.926Z,1003.24
2023-07-19T06:49:31.133Z,1003.19
2023-07-19T06:54:35.320Z,1003.22
2023-07-19T06:59:39.463Z,1003.38
2023-07-19T07:04:43.616Z,1003.33
2023-07-19T07:09:47.784Z,1003.46
2023-07-19T07:14:51.969Z,1003.48
2023-07-19T07:19:58.810Z,1003.44
2023-07-19T07:25:00.267Z,1003.40
2023-07-19T07:30:04.436Z,1003.42
2023-07-19T07:35:08.583Z,1003.43
2023-07-19T07:40:12.794Z,1003.46
2023-07-19T07:45:16.928Z,1003.51
2023-07-19T07:50:21.128Z,1003.52
2023-07-19T07:55:25.272Z,1003.47
2023-07-19T08:00:29.394Z,1003.47
2023-07-19T08:05:33.621Z,1003.61
2023-07-19T08:10:37.738Z,1003.64
2023-07-19T08:15:41.885Z,1003.43
2023-07-19T08:20:46.052Z,1003.36
2023-07-19T08:25:50.204Z,1003.36
2023-07-19T08:30:54.433Z,1003.35
2023-07-19T08:35:58.503Z,1003.36
2023-07-19T08:41:02.659Z,1003.41
2023-07-19T08:46:06.848Z,1003.48
2023-07-19T08:51:11.018Z,1003.49
2023-07-19T08:56:15.153Z,1003.49
2023-07-19T09:01:19.710Z,1003.38
2023-07-19T09:06:23.480Z,1003.38
2023-07-19T09:11:27.610Z,1003.41
2023-07-19T09:16:31.804Z,1003.36
2023-07-19T09:21:35.947Z,1003.30
2023-07-19T09:26:40.151Z,1003.35
2023-07-19T09:31:44.276Z,1003.34
2023-07-19T09:36:48.422Z,1003.40
2023-07-19T09:41:52.610Z,1003.26
2023-07-19T09:46:56.751Z,1003.22
2023-07-19T09:52:00.926Z,1003.30
2023-07-19T09:57:05.052Z,1003.27
2023-07-19T10:02:09.218Z,1003.25
2023-07-19T10:07:13.362Z,1003.28
2023-07-19T10:12:15.624Z,1003.32
2023-07-19T10:17:19.838Z,1003.26
2023-07-19T10:22:23.997Z,1003.30
2023-07-19T10:27:28.145Z,1003.14
2023-07-19T10:32:32.318Z,1003.19
2023-07-19T10:37:36.426Z,1003.17
2023-07-19T10:42:40.669Z,1003.18
2023-07-19T10:47:44.787Z,1003.17
2023-07-19T10:52:48.944Z,1003.07
2023-07-19T10:57:53.121Z,1003.12
2023-07-19T11:02:57.314Z,1003.10
2023-07-19T11:08:01.423Z,1003.16
2023-07-19T11:13:05.570Z,1003.09
2023-07-19T11:18:09.785Z,1002.99
2023-07-19T11:23:14.062Z,1002.95
2023-07-19T11:28:18.047Z,1002.90
2023-07-19T11:33:22.179Z,1002.87
2023-07-19T11:38:26.370Z,1002.85
2023-07-19T11:43:30.523Z,1002.75
2023-07-19T11:48:34.698Z,1002.73
2023-07-19T11:53:38.876Z,1002.73
2023-07-19T11:58:45.828Z,1002.67
2023-07-19T12:03:47.240Z,1002.54
2023-07-19T12:08:51.297Z,1002.59
2023-07-19T12:13:55.452Z,1002.57
2023-07-19T12:18:59.585Z,1002.52
2023-07-19T12:24:03.778Z,1002.45
2023-07-19T12:29:07.963Z,1002.37
2023-07-19T12:39:17.277Z,1002.37
2023-07-19T12:44:20.425Z,1002.27
2023-07-19T12:49:24.575Z,1002.25
2023-07-19T12:54:28.750Z,1002.20
2023-07-19T12:59:32.899Z,1002.19
2023-07-19T13:04:37.031Z,1002.20
2023-07-19T13:09:41.197Z,1002.02
2023-07-19T13:14:45.375Z,1002.12
2023-07-19T13:19:49.549Z,1002.12
2023-07-19T13:24:53.680Z,1002.13
2023-07-19T13:29:57.846Z,1002.21
2023-07-19T13:35:02.012Z,1002.21
2023-07-19T13:40:06.169Z,1002.15
2023-07-19T13:45:10.383Z,1002.11
2023-07-19T13:50:14.477Z,1002.12
2023-07-19T13:55:18.635Z,1002.11
2023-07-19T14:00:22.815Z,1002.05
2023-07-19T14:05:26.972Z,1001.97
2023-07-19T14:10:31.123Z,1001.84
2023-07-19T14:15:35.262Z,1001.87
2023-07-19T14:20:39.475Z,1001.85
2023-07-19T14:25:43.596Z,1001.82
2023-07-19T14:30:47.765Z,1001.81
2023-07-19T14:35:52.975Z,1001.71
2023-07-19T14:40:56.186Z,1001.77
2023-07-19T14:46:00.290Z,1001.84
2023-07-19T14:51:05.433Z,1001.80
2023-07-19T14:56:08.551Z,1001.88
2023-07-19T15:01:13.293Z,1001.81
2023-07-19T15:06:16.863Z,1001.88
2023-07-19T15:16:25.744Z,1001.99
2023-07-19T15:21:29.351Z,1001.92
2023-07-19T15:26:34.670Z,1001.88
2023-07-19T15:31:37.708Z,1001.87
2023-07-19T15:36:41.793Z,1001.88
2023-07-19T15:41:44.091Z,1001.91
2023-07-19T15:46:48.226Z,1001.89
2023-07-19T15:51:52.390Z,1001.94
2023-07-19T15:56:56.556Z,1002.06
2023-07-19T16:02:00.764Z,1002.14
2023-07-19T16:07:04.908Z,1002.38
2023-07-19T16:12:07.181Z,1002.45
2023-07-19T16:17:11.326Z,1002.47
2023-07-19T16:22:15.490Z,1002.43
2023-07-19T16:27:19.652Z,1002.49
2023-07-19T16:32:23.860Z,1002.61
2023-07-19T16:37:27.955Z,1002.49
2023-07-19T16:42:32.107Z,1002.49
2023-07-19T16:47:36.401Z,1002.52
2023-07-19T16:52:40.414Z,1002.56
2023-07-19T16:57:44.599Z,1002.63
2023-07-19T17:02:48.835Z,1002.57
2023-07-19T17:07:52.899Z,1002.59
2023-07-19T17:12:57.067Z,1002.59
2023-07-19T17:18:01.353Z,1002.64
2023-07-19T17:23:05.408Z,1002.81
2023-07-19T17:28:09.538Z,1002.89
2023-07-19T17:33:13.725Z,1002.93
2023-07-19T17:38:17.886Z,1002.90
2023-07-19T17:43:22.077Z,1002.95
2023-07-19T17:48:26.182Z,1002.73
2023-07-19T17:53:30.365Z,1002.77
2023-07-19T17:58:34.524Z,1002.74
2023-07-19T18:03:38.703Z,1002.63
2023-07-19T18:08:42.794Z,1002.72
2023-07-19T18:13:47.011Z,1002.75
2023-07-19T18:18:51.140Z,1002.73
2023-07-19T18:23:55.271Z,1002.69
2023-07-19T18:28:59.481Z,1002.86
2023-07-19T18:34:03.632Z,1002.90
2023-07-19T18:39:07.796Z,1003.04
2023-07-19T18:44:11.968Z,1003.01
2023-07-19T18:49:17.819Z,1002.89
2023-07-19T18:54:20.250Z,1002.94
2023-07-19T18:59:24.403Z,1002.79
2023-07-19T19:04:28.586Z,1002.75
2023-07-19T19:09:36.017Z,1002.89
2023-07-19T19:14:36.909Z,1002.93
2023-07-19T19:19:41.042Z,1002.91
2023-07-19T19:24:45.181Z,1003.02
2023-07-19T19:29:49.379Z,1003.09
2023-07-19T19:34:53.499Z,1003.13
2023-07-19T19:39:57.717Z,1003.13
2023-07-19T19:45:01.870Z,1003.16
2023-07-19T19:50:06.013Z,1003.14
2023-07-19T19:55:10.205Z,1003.20
2023-07-19T20:00:14.325Z,1003.23
2023-07-19T20:10:22.645Z,1003.29
2023-07-19T20:15:27.269Z,1003.32
2023-07-19T20:20:32.233Z,1003.31
2023-07-19T20:25:47.573Z,1003.35
2023-07-19T20:45:51.778Z,1003.38
2023-07-19T20:50:55.952Z,1003.42
2023-07-19T20:56:00.086Z,1003.52
2023-07-19T21:01:04.291Z,1003.58
2023-07-19T21:06:08.405Z,1003.52
2023-07-19T21:11:12.574Z,1003.54
2023-07-19T21:16:16.754Z,1003.49
2023-07-19T21:21:21.111Z,1003.53
2023-07-19T21:26:25.064Z,1003.54
2023-07-19T21:31:29.334Z,1003.61
2023-07-19T21:36:33.426Z,1003.64
2023-07-19T21:41:35.642Z,1003.68
2023-07-19T21:46:39.819Z,1003.69
2023-07-19T21:51:43.945Z,1003.64
2023-07-19T21:56:48.154Z,1003.73
2023-07-19T22:01:52.273Z,1003.69
2023-07-19T22:06:56.423Z,1003.71
2023-07-19T22:12:00.579Z,1003.71
2023-07-19T22:17:04.965Z,1003.73
2023-07-19T22:22:08.913Z,1003.78
2023-07-19T22:27:13.073Z,1003.74
2023-07-19T22:32:17.229Z,1003.69
2023-07-19T22:37:21.402Z,1003.77
2023-07-19T22:42:25.560Z,1003.67
2023-07-19T22:47:29.802Z,1003.63
2023-07-19T22:52:33.907Z,1003.68
2023-07-19T22:57:38.038Z,1003.70
2023-07-19T23:02:42.241Z,1003.61
2023-07-19T23:07:46.367Z,1003.66
2023-07-19T23:12:50.554Z,1003.68
2023-07-19T23:17:54.716Z,1003.63
2023-07-19T23:22:58.865Z,1003.69
2023-07-19T23:28:03.016Z,1003.62
2023-07-19T23:33:07.309Z,1003.54
2023-07-19T23:38:11.300Z,1003.57
2023-07-19T23:43:15.480Z,1003.68
2023-07-19T23:48:19.640Z,1003.72
2023-07-19T23:53:23.838Z,1003.64
2023-07-19T23:58:27.968Z,1003.67
